Aérodrome :
LOGIN :

S'inscrire | Disclaimer

   EN    FR    IT 

 










Légende :    VFR   VFR Marginal   IFR   IFR Intensif   IFR Très Intensif
Visi : 
Plafond : 
>= 8 km
>= 3000ft
5 à 8 km
1000 à 3000 ft
1500m à 5 km
500 à 1000 ft
800 à 1500m
200 à 500 ft
< 800m
< 200 ft
Symboles :   Orages  Brouillard  Fortes neiges  Fortes précipitations  Vent > 20 kt
SIGMETs :   Divers  Orages  Givrage  Turbulence  Onde Orograph.  Cendres Volcan.






- Altitude de l'aérodrome : 370 ft


EBBE - Beauvechain AB

DERNIER METAR :
  • 291325Z 03011KT 9999 FEW300 21/03 Q1025 BLU BLU

METARs EXPIRÉS :
  • 291255Z 03008KT 9999 FEW300 21/02 Q1026 BLU BLU
  • 291225Z 06008KT 9999 FEW300 21/03 Q1026 BLU BLU
  • 291155Z 06007KT 9999 FEW300 20/03 Q1026 BLU BLU
  • 291125Z 04006KT 9999 FEW300 20/04 Q1027 BLU BLU
  • 291055Z 05006KT 9999 FEW300 19/04 Q1027 BLU BLU
  • 291025Z 07005KT 9999 FEW300 19/05 Q1028 BLU BLU

TAF TAF EBBE
Valide du 29 à 13h jusqu'au 29 à 22h UTC


291141Z 2913/2922 04012KT 9999 FEW320
BECMG 2917/2919 06006KT SCT250



MET'MAP, la Météo Aéronautique d'un coup d'oeil ! - Copyright ORBIFLY Décembre 2007 - Disclaimer

ORBIFLY MET'MAP TEAM :

Programmation & Développement : Alexandra Zaïnal
Sur une idée originale de : Baudouin d'Aumeries
Assistance à la programmation : Marc-Olivier Méhu
Soutien technique & logistique : Manuel Goepfert

Contact : metmap@orbifly.com




SOURCES & CREDITS :

   NOAA